Time;durP1;ratioP1;P1;durP2;ratioP2;P2;SDS_P1;SDS_P2;PMS_P1;PMS_P2;Temp;Humidity;BMP_temperature;BMP_pressure;BME280_temperature;BME280_humidity;BME280_pressure;Samples;Min_cycle;Max_cycle;Signal;HPM_P1;HPM_P2
2023/01/09 00:02:21;;;;;;;21.40;10.30;;;;;;;-8.05;61.96;101514.46;105515;1258;59587;-73
2023/01/09 00:04:48;;;;;;;24.50;10.50;;;;;;;-8.02;61.95;101510.73;105327;1254;59703;-71
2023/01/09 00:07:18;;;;;;;24.70;10.10;;;;;;;-8.00;61.92;101516.77;105455;1254;65839;-70
2023/01/09 00:09:45;;;;;;;22.20;11.00;;;;;;;-7.97;61.83;101517.65;105541;1255;59590;-73
2023/01/09 00:12:12;;;;;;;22.70;10.10;;;;;;;-7.95;61.78;101517.00;105549;1255;66651;-71
2023/01/09 00:14:39;;;;;;;21.90;10.50;;;;;;;-7.91;61.66;101516.70;105588;1253;59653;-71
2023/01/09 00:17:11;;;;;;;18.80;8.90;;;;;;;-7.89;61.53;101517.77;105491;1253;59721;-72
2023/01/09 00:19:38;;;;;;;27.20;10.10;;;;;;;-7.86;61.26;101520.55;105605;1254;63225;-70
2023/01/09 00:22:08;;;;;;;26.60;11.30;;;;;;;-7.83;60.88;101514.10;105524;1256;61249;-70
2023/01/09 00:24:36;;;;;;;31.00;11.20;;;;;;;-7.81;60.47;101499.42;105381;1253;66135;-71
2023/01/09 00:27:03;;;;;;;38.60;12.70;;;;;;;-7.77;60.01;101493.99;105421;1254;59673;-70
2023/01/09 00:29:30;;;;;;;42.10;15.80;;;;;;;-7.75;59.35;101492.48;105420;1253;59770;-71
2023/01/09 00:31:57;;;;;;;40.80;14.30;;;;;;;-7.73;59.21;101486.02;105327;1258;66599;-71
2023/01/09 00:34:25;;;;;;;43.80;15.60;;;;;;;-7.70;58.96;101484.70;105498;1258;60338;-71
2023/01/09 00:36:54;;;;;;;44.30;15.80;;;;;;;-7.67;58.64;101481.64;105429;1258;66265;-70
2023/01/09 00:39:23;;;;;;;41.20;15.90;;;;;;;-7.64;58.29;101485.26;105496;1253;59658;-69
2023/01/09 00:41:52;;;;;;;41.50;16.10;;;;;;;-7.62;58.03;101488.89;105640;1256;59641;-71
2023/01/09 00:44:26;;;;;;;44.10;15.80;;;;;;;-7.60;57.90;101478.66;105505;1255;66984;-71
2023/01/09 00:46:56;;;;;;;38.10;14.60;;;;;;;-7.56;57.93;101473.05;105520;1255;59795;-73
2023/01/09 00:49:23;;;;;;;43.30;14.60;;;;;;;-7.52;57.74;101465.25;105553;1253;66764;-72
2023/01/09 00:51:52;;;;;;;35.30;14.80;;;;;;;-7.49;57.70;101463.05;105500;1257;59708;-71
2023/01/09 00:54:20;;;;;;;30.30;12.70;;;;;;;-7.45;57.72;101466.01;105465;1257;59653;-71
2023/01/09 00:56:51;;;;;;;25.30;10.40;;;;;;;-7.41;57.83;101460.07;105586;1258;66885;-71
2023/01/09 00:59:18;;;;;;;24.50;9.50;;;;;;;-7.39;57.81;101458.20;105387;1254;59555;-70
2023/01/09 01:01:45;;;;;;;23.50;9.90;;;;;;;-7.38;57.69;101454.11;105174;1260;65584;-70
2023/01/09 01:09:44;;;;;;;22.20;9.20;;;;;;;-7.31;57.45;101447.34;105472;1253;65254;-70
2023/01/09 01:12:13;;;;;;;23.40;9.80;;;;;;;-7.31;57.40;101447.01;105616;1253;60998;-71
2023/01/09 01:14:41;;;;;;;18.90;9.30;;;;;;;-7.29;57.31;101448.73;105606;1258;65573;-71
2023/01/09 01:17:09;;;;;;;27.50;10.60;;;;;;;-7.27;57.30;101447.38;105647;1258;60791;-72
2023/01/09 01:19:36;;;;;;;21.70;8.90;;;;;;;-7.26;57.33;101443.61;105467;1254;60197;-71
2023/01/09 01:22:04;;;;;;;21.40;9.20;;;;;;;-7.24;57.36;101439.39;105145;1260;66919;-71
2023/01/09 01:24:30;;;;;;;18.70;9.00;;;;;;;-7.20;57.41;101434.29;105501;1253;69318;-70
2023/01/09 01:26:57;;;;;;;18.70;8.50;;;;;;;-7.18;57.37;101424.37;105463;1254;66406;-70
2023/01/09 01:29:25;;;;;;;24.80;10.60;;;;;;;-7.17;57.35;101424.20;105290;1253;63831;-73
2023/01/09 01:31:52;;;;;;;23.20;10.00;;;;;;;-7.15;57.40;101420.29;105652;1253;59647;-70
2023/01/09 01:34:19;;;;;;;20.20;9.50;;;;;;;-7.12;57.53;101421.02;105484;1259;66735;-69
2023/01/09 01:36:46;;;;;;;18.90;8.60;;;;;;;-7.09;57.47;101415.56;105478;1253;59943;-69
2023/01/09 01:39:15;;;;;;;25.10;8.90;;;;;;;-7.07;57.36;101414.38;105490;1253;66845;-70
2023/01/09 01:41:42;;;;;;;26.00;9.50;;;;;;;-7.07;57.40;101413.17;105721;1253;59823;-71
2023/01/09 01:44:47;;;;;;;21.90;9.00;;;;;;;-7.05;57.51;101411.31;106993;1253;59076;-69
2023/01/09 01:47:13;;;;;;;22.10;8.20;;;;;;;-7.02;57.50;101412.04;106447;1253;65840;-69
2023/01/09 01:49:40;;;;;;;18.10;7.90;;;;;;;-6.99;57.49;101413.92;105446;1256;61177;-72
2023/01/09 01:52:08;;;;;;;16.60;7.70;;;;;;;-6.95;57.60;101415.17;105372;1253;66288;-72
2023/01/09 01:54:36;;;;;;;18.30;7.40;;;;;;;-6.93;57.47;101415.03;105490;1260;59766;-70
2023/01/09 01:57:03;;;;;;;17.40;7.70;;;;;;;-6.91;57.47;101407.67;105534;1254;59605;-72
2023/01/09 01:59:41;;;;;;;18.00;8.00;;;;;;;-6.91;57.52;101409.21;105455;1253;65770;-70
2023/01/09 02:02:08;;;;;;;15.50;7.50;;;;;;;-6.90;57.51;101404.94;105557;1253;61264;-69
2023/01/09 02:04:38;;;;;;;18.20;8.10;;;;;;;-6.90;57.63;101395.86;105602;1256;66690;-70
2023/01/09 02:07:07;;;;;;;16.60;7.90;;;;;;;-6.88;57.79;101385.27;105777;1260;60125;-71
2023/01/09 02:09:35;;;;;;;24.30;7.90;;;;;;;-6.86;57.85;101383.21;105689;1253;59756;-71
2023/01/09 02:12:23;;;;;;;24.80;11.20;;;;;;;-6.84;57.97;101381.54;105550;1253;65792;-69
2023/01/09 02:14:59;;;;;;;25.40;10.50;;;;;;;-6.84;58.09;101375.71;105409;1260;59916;-70
2023/01/09 02:17:51;;;;;;;22.00;10.20;;;;;;;-6.84;58.22;101374.86;105542;1256;66490;-71
2023/01/09 02:20:36;;;;;;;16.80;8.80;;;;;;;-6.83;58.34;101373.33;105524;1253;59740;-71
2023/01/09 02:23:24;;;;;;;17.30;8.40;;;;;;;-6.81;58.47;101375.22;105412;1259;59814;-71
2023/01/09 02:25:55;;;;;;;16.60;8.10;;;;;;;-6.79;58.54;101368.21;105492;1254;65686;-72
2023/01/09 02:28:41;;;;;;;20.20;8.90;;;;;;;-6.77;58.74;101362.39;105467;1253;67896;-70
2023/01/09 02:31:23;;;;;;;17.00;7.80;;;;;;;-6.75;58.81;101356.77;105492;1256;68831;-71
2023/01/09 02:34:15;;;;;;;16.00;7.60;;;;;;;-6.73;58.84;101351.83;105524;1256;60263;-71
2023/01/09 02:36:48;;;;;;;18.40;6.90;;;;;;;-6.71;58.97;101343.27;105509;1258;59546;-70
2023/01/09 02:39:26;;;;;;;18.50;8.50;;;;;;;-6.70;59.01;101337.79;105573;1258;66871;-70
2023/01/09 02:42:00;;;;;;;18.60;8.30;;;;;;;-6.69;59.17;101345.32;105451;1256;68453;-74
2023/01/09 02:44:33;;;;;;;19.90;8.50;;;;;;;-6.68;59.23;101345.50;105588;1258;66176;-71
2023/01/09 02:47:05;;;;;;;14.40;7.50;;;;;;;-6.66;59.33;101342.27;105480;1258;60556;-71
2023/01/09 02:49:34;;;;;;;21.30;8.60;;;;;;;-6.64;59.39;101339.04;105602;1254;60539;-71
2023/01/09 02:52:01;;;;;;;17.00;9.10;;;;;;;-6.62;59.52;101338.52;105567;1260;67543;-71
2023/01/09 02:54:48;;;;;;;18.70;8.90;;;;;;;-6.60;59.62;101337.50;105644;1253;60558;-71
2023/01/09 02:57:20;;;;;;;21.40;9.40;;;;;;;-6.59;59.81;101334.94;105566;1256;74405;-70
2023/01/09 02:59:48;;;;;;;18.50;8.90;;;;;;;-6.55;59.93;101333.93;105492;1254;60428;-73
2023/01/09 03:02:33;;;;;;;21.10;10.50;;;;;;;-6.52;60.04;101335.67;105415;1255;60412;-72
2023/01/09 03:05:07;;;;;;;18.40;9.30;;;;;;;-6.49;60.10;101330.88;109197;1253;67417;-70
2023/01/09 03:07:44;;;;;;;20.00;9.00;;;;;;;-6.46;60.16;101320.45;109318;1253;59466;-71
2023/01/09 03:10:16;;;;;;;20.80;9.30;;;;;;;-6.44;60.19;101320.64;109200;1253;63929;-70
2023/01/09 03:12:43;;;;;;;19.00;8.70;;;;;;;-6.42;60.25;101322.88;109103;1253;58207;-70
2023/01/09 03:15:11;;;;;;;24.50;9.60;;;;;;;-6.39;60.29;101321.69;109297;1253;59497;-69
2023/01/09 03:17:41;;;;;;;17.60;8.10;;;;;;;-6.35;60.36;101317.61;109257;1253;64090;-71
2023/01/09 03:20:09;;;;;;;20.10;9.20;;;;;;;-6.32;60.41;101313.84;109326;1254;60595;-70
2023/01/09 03:22:53;;;;;;;21.60;10.50;;;;;;;-6.30;60.61;101316.23;109154;1254;66185;-70
2023/01/09 03:25:20;;;;;;;21.50;10.10;;;;;;;-6.28;60.86;101317.27;109276;1253;59298;-70
2023/01/09 03:27:49;;;;;;;23.40;10.80;;;;;;;-6.27;61.15;101312.49;109166;1255;58069;-71
2023/01/09 03:30:16;;;;;;;28.40;12.50;;;;;;;-6.26;61.28;101308.56;109298;1253;67220;-70
2023/01/09 03:32:44;;;;;;;25.60;10.80;;;;;;;-6.22;61.48;101311.48;109341;1252;59456;-70
2023/01/09 03:35:11;;;;;;;23.80;9.80;;;;;;;-6.20;61.61;101308.05;109362;1253;65971;-70
2023/01/09 03:37:38;;;;;;;25.10;10.20;;;;;;;-6.18;61.71;101308.40;109282;1252;58155;-70
2023/01/09 03:40:05;;;;;;;29.10;11.30;;;;;;;-6.16;61.84;101309.98;109349;1253;58044;-70
2023/01/09 03:42:32;;;;;;;26.60;10.80;;;;;;;-6.14;61.81;101307.23;109360;1254;66052;-71
2023/01/09 03:44:59;;;;;;;23.90;10.40;;;;;;;-6.11;61.87;101305.52;109301;1253;60486;-70
2023/01/09 03:47:26;;;;;;;26.70;11.00;;;;;;;-6.09;61.91;101303.83;109462;1253;65177;-71
2023/01/09 03:49:54;;;;;;;17.40;9.70;;;;;;;-6.07;61.90;101302.30;109504;1252;58153;-70
2023/01/09 03:52:20;;;;;;;18.70;9.00;;;;;;;-6.05;62.09;101298.86;109558;1253;58048;-69
2023/01/09 03:54:47;;;;;;;19.30;9.00;;;;;;;-6.02;61.99;101297.83;109475;1253;65941;-71
2023/01/09 03:57:14;;;;;;;21.50;10.20;;;;;;;-6.01;62.01;101298.35;109315;1253;60672;-70
2023/01/09 03:59:41;;;;;;;17.40;8.80;;;;;;;-5.99;62.00;101298.35;109434;1253;65060;-70
2023/01/09 04:02:08;;;;;;;25.70;10.80;;;;;;;-5.97;62.01;101297.35;109397;1253;58133;-71
2023/01/09 04:04:36;;;;;;;19.60;9.50;;;;;;;-5.97;62.03;101295.13;109391;1253;58135;-71
2023/01/09 04:07:03;;;;;;;22.10;9.60;;;;;;;-5.96;62.03;101291.35;109446;1253;67781;-71
2023/01/09 04:09:30;;;;;;;26.80;11.50;;;;;;;-5.96;62.07;101291.34;109460;1253;59779;-70
2023/01/09 04:11:57;;;;;;;24.10;10.80;;;;;;;-5.97;62.15;101295.12;109464;1253;65065;-71
2023/01/09 04:14:24;;;;;;;23.40;11.80;;;;;;;-5.97;62.35;101295.13;109282;1254;58242;-70
2023/01/09 04:16:51;;;;;;;28.40;12.20;;;;;;;-5.96;62.46;101297.00;109273;1253;58201;-70
2023/01/09 04:19:18;;;;;;;25.60;11.90;;;;;;;-5.95;62.57;101299.41;109427;1253;65794;-71
2023/01/09 04:21:45;;;;;;;25.80;11.80;;;;;;;-5.92;62.63;101298.21;109444;1253;60462;-70
2023/01/09 04:24:12;;;;;;;25.80;11.30;;;;;;;-5.90;62.73;101299.73;109481;1253;65150;-72
2023/01/09 04:26:39;;;;;;;25.30;10.80;;;;;;;-5.89;62.76;101296.82;109475;1253;58133;-71
2023/01/09 04:29:06;;;;;;;25.80;11.80;;;;;;;-5.86;62.80;101293.74;109430;1257;58247;-71
2023/01/09 04:31:33;;;;;;;25.10;11.20;;;;;;;-5.84;62.89;101290.83;109372;1253;66942;-70
2023/01/09 04:34:00;;;;;;;33.90;13.80;;;;;;;-5.82;62.97;101284.83;109473;1253;59640;-71
2023/01/09 04:36:27;;;;;;;39.10;14.60;;;;;;;-5.82;62.99;101282.07;109415;1253;65953;-70
2023/01/09 04:38:54;;;;;;;32.90;14.10;;;;;;;-5.81;63.11;101278.98;109463;1254;58155;-71
2023/01/09 04:44:07;;;;;;;42.40;22.70;;;;;;;-5.77;63.19;101268.55;109475;1253;67169;-70
2023/01/09 04:46:34;;;;;;;28.90;16.20;;;;;;;-5.75;63.17;101272.66;109445;1252;59558;-71
2023/01/09 04:49:01;;;;;;;23.60;11.90;;;;;;;-5.75;63.23;101275.23;109373;1253;66128;-71
2023/01/09 04:51:28;;;;;;;23.10;10.30;;;;;;;-5.76;63.32;101268.55;109246;1253;58184;-71
2023/01/09 04:53:56;;;;;;;27.90;11.30;;;;;;;-5.78;63.37;101267.69;109373;1253;58278;-71
2023/01/09 04:56:23;;;;;;;21.40;9.40;;;;;;;-5.80;63.41;101267.32;109248;1253;66271;-70
2023/01/09 04:58:50;;;;;;;24.00;10.20;;;;;;;-5.80;63.44;101267.49;109392;1253;60348;-71
2023/01/09 05:01:18;;;;;;;24.20;10.30;;;;;;;-5.79;63.50;101263.05;109475;1257;62554;-70
2023/01/09 05:03:45;;;;;;;29.70;13.10;;;;;;;-5.78;63.58;101258.42;109348;1253;58175;-71
2023/01/09 05:06:12;;;;;;;31.60;12.80;;;;;;;-5.76;63.66;101256.20;109326;1253;58106;-71
2023/01/09 05:08:39;;;;;;;27.20;12.80;;;;;;;-5.74;63.66;101249.67;109366;1253;64442;-70
2023/01/09 05:11:07;;;;;;;35.20;15.00;;;;;;;-5.71;63.72;101249.33;109351;1253;59498;-70
2023/01/09 05:13:34;;;;;;;32.50;13.90;;;;;;;-5.70;63.64;101252.77;109247;1253;66435;-70
2023/01/09 05:16:01;;;;;;;29.90;12.80;;;;;;;-5.69;63.63;101250.20;109328;1253;58191;-70
2023/01/09 05:18:28;;;;;;;33.50;13.30;;;;;;;-5.67;63.71;101253.47;109356;1253;58195;-71
2023/01/09 05:20:55;;;;;;;29.70;12.90;;;;;;;-5.64;63.76;101253.46;109350;1253;67146;-70
2023/01/09 05:23:22;;;;;;;26.20;11.70;;;;;;;-5.60;63.82;101252.09;109397;1253;60219;-70
2023/01/09 05:25:49;;;;;;;23.80;10.90;;;;;;;-5.56;63.86;101251.92;109281;1253;64821;-71
2023/01/09 05:28:16;;;;;;;22.00;10.60;;;;;;;-5.55;63.82;101250.04;109260;1256;58095;-71
2023/01/09 05:30:43;;;;;;;20.50;9.90;;;;;;;-5.54;63.77;101247.11;109311;1253;58516;-71
2023/01/09 05:33:10;;;;;;;25.90;11.50;;;;;;;-5.53;63.79;101243.34;109117;1253;64080;-71
2023/01/09 05:35:38;;;;;;;23.60;11.10;;;;;;;-5.53;63.82;101242.65;109410;1253;58282;-70
2023/01/09 05:38:05;;;;;;;23.70;10.20;;;;;;;-5.53;63.86;101246.26;109560;1253;66124;-70
2023/01/09 05:40:33;;;;;;;22.20;10.90;;;;;;;-5.53;63.99;101240.42;109433;1253;58088;-71
2023/01/09 05:43:06;;;;;;;27.00;12.00;;;;;;;-5.52;63.98;101244.20;109534;1253;58840;-70
2023/01/09 05:45:34;;;;;;;29.60;12.80;;;;;;;-5.51;64.03;101244.88;109319;1253;65394;-70
2023/01/09 05:48:01;;;;;;;31.40;13.40;;;;;;;-5.50;64.04;101246.09;109354;1254;60941;-72
2023/01/09 05:50:28;;;;;;;29.20;13.20;;;;;;;-5.47;64.03;101241.80;109230;1254;66302;-70
2023/01/09 05:52:56;;;;;;;25.90;11.80;;;;;;;-5.44;63.97;101240.59;109265;1256;58146;-71
2023/01/09 05:55:23;;;;;;;34.10;12.70;;;;;;;-5.43;63.94;101240.77;109324;1254;58106;-70
2023/01/09 05:57:50;;;;;;;26.10;12.00;;;;;;;-5.43;64.02;101239.21;109319;1253;67179;-71
2023/01/09 06:00:18;;;;;;;24.00;12.00;;;;;;;-5.43;64.09;101239.05;109343;1255;60485;-71
2023/01/09 06:02:44;;;;;;;25.30;11.40;;;;;;;-5.42;64.12;101244.20;109230;1254;64816;-70
2023/01/09 06:05:11;;;;;;;26.00;11.60;;;;;;;-5.42;64.07;101240.92;109293;1255;58137;-70
2023/01/09 06:07:40;;;;;;;25.10;10.90;;;;;;;-5.41;64.24;101242.98;109242;1254;58095;-70
2023/01/09 06:10:12;;;;;;;24.50;11.10;;;;;;;-5.43;64.46;101243.52;109243;1254;67301;-69
2023/01/09 06:12:46;;;;;;;23.70;11.20;;;;;;;-5.44;64.64;101245.58;109326;1254;58589;-70
2023/01/09 06:15:15;;;;;;;28.30;12.40;;;;;;;-5.44;64.91;101245.23;109219;1254;64086;-71
2023/01/09 06:17:42;;;;;;;31.50;13.50;;;;;;;-5.44;65.08;101244.71;109310;1256;58105;-70
2023/01/09 06:20:09;;;;;;;30.20;12.50;;;;;;;-5.43;65.25;101249.35;109322;1255;58014;-71
2023/01/09 06:22:37;;;;;;;24.50;11.40;;;;;;;-5.42;65.35;101249.34;109336;1254;67122;-70
2023/01/09 06:25:06;;;;;;;29.90;12.10;;;;;;;-5.41;65.45;101248.99;109282;1257;58176;-71
2023/01/09 06:27:34;;;;;;;23.20;10.80;;;;;;;-5.40;65.67;101248.66;109243;1256;66062;-69
2023/01/09 06:30:02;;;;;;;23.10;11.40;;;;;;;-5.38;65.89;101249.88;109119;1261;58158;-71
2023/01/09 06:32:29;;;;;;;23.50;9.80;;;;;;;-5.40;66.00;101249.19;109306;1254;58202;-71
2023/01/09 06:34:56;;;;;;;29.40;12.30;;;;;;;-5.40;66.13;101252.25;109303;1254;66431;-71
2023/01/09 06:37:23;;;;;;;22.80;11.00;;;;;;;-5.40;66.32;101253.11;109312;1254;60562;-69
2023/01/09 06:39:52;;;;;;;25.50;11.70;;;;;;;-5.39;66.52;101252.62;109222;1254;65795;-70
2023/01/09 06:42:20;;;;;;;28.10;11.70;;;;;;;-5.39;66.67;101251.58;109299;1256;58180;-70
2023/01/09 06:44:47;;;;;;;22.90;12.00;;;;;;;-5.40;66.87;101252.79;109331;1256;58280;-70
2023/01/09 06:47:14;;;;;;;28.50;12.00;;;;;;;-5.40;66.97;101245.74;109240;1254;67255;-71
2023/01/09 06:49:42;;;;;;;29.90;13.50;;;;;;;-5.38;67.18;101245.41;109178;1254;58240;-70
2023/01/09 06:52:09;;;;;;;25.50;13.00;;;;;;;-5.38;67.23;101250.73;109257;1254;74549;-71
2023/01/09 06:54:37;;;;;;;25.90;13.50;;;;;;;-5.37;67.36;101250.56;109203;1256;58126;-70
2023/01/09 06:57:04;;;;;;;35.70;13.90;;;;;;;-5.35;67.54;101248.66;109286;1254;58093;-70
2023/01/09 06:59:33;;;;;;;30.50;14.80;;;;;;;-5.33;67.68;101245.56;109219;1255;66102;-69
2023/01/09 07:02:01;;;;;;;24.70;11.40;;;;;;;-5.30;67.78;101245.75;109311;1254;60178;-70
2023/01/09 07:04:28;;;;;;;27.60;12.40;;;;;;;-5.26;67.91;101251.41;109207;1254;65259;-71
2023/01/09 07:06:55;;;;;;;31.30;14.30;;;;;;;-5.24;67.98;101250.02;109236;1257;58137;-70
2023/01/09 07:09:22;;;;;;;28.50;13.60;;;;;;;-5.21;68.12;101248.14;109247;1254;58312;-69
2023/01/09 07:11:49;;;;;;;31.10;12.60;;;;;;;-5.19;68.23;101247.80;109266;1254;66086;-70
2023/01/09 07:14:16;;;;;;;27.20;12.70;;;;;;;-5.16;68.31;101250.55;109038;1254;59283;-71
2023/01/09 07:16:43;;;;;;;31.30;13.80;;;;;;;-5.14;68.43;101252.94;109317;1254;66076;-70
2023/01/09 07:19:10;;;;;;;28.60;12.20;;;;;;;-5.13;68.54;101252.23;109189;1254;58158;-70
2023/01/09 07:21:37;;;;;;;29.50;12.20;;;;;;;-5.10;68.67;101250.36;109205;1254;58200;-69
2023/01/09 07:24:04;;;;;;;30.20;12.70;;;;;;;-5.08;68.71;101245.90;109278;1254;65506;-71
2023/01/09 07:26:31;;;;;;;26.80;12.70;;;;;;;-5.06;68.79;101244.85;109235;1254;59605;-73
2023/01/09 07:28:58;;;;;;;29.50;12.10;;;;;;;-5.03;68.86;101242.10;109277;1254;64922;-72
2023/01/09 07:31:24;;;;;;;27.80;12.40;;;;;;;-5.00;68.80;101238.33;109236;1255;58316;-75
2023/01/09 07:33:51;;;;;;;31.00;13.40;;;;;;;-4.96;68.83;101235.22;109259;1255;58222;-72
2023/01/09 07:36:18;;;;;;;30.40;14.90;;;;;;;-4.92;68.82;101231.27;109266;1256;67377;-71
2023/01/09 07:38:45;;;;;;;31.70;14.70;;;;;;;-4.88;68.85;101231.77;109279;1256;60451;-73
2023/01/09 07:41:12;;;;;;;32.10;14.00;;;;;;;-4.84;68.82;101231.06;109220;1254;65343;-68
2023/01/09 07:43:39;;;;;;;32.40;14.80;;;;;;;-4.80;68.78;101231.23;109152;1254;58119;-69
2023/01/09 07:46:06;;;;;;;37.50;15.20;;;;;;;-4.77;68.71;101224.70;109161;1254;58200;-68
2023/01/09 07:48:34;;;;;;;27.40;12.80;;;;;;;-4.73;68.66;101225.89;109213;1255;67307;-69
2023/01/09 07:51:01;;;;;;;30.40;13.70;;;;;;;-4.70;68.70;101222.09;109247;1255;60327;-69
2023/01/09 07:53:28;;;;;;;25.80;12.50;;;;;;;-4.66;68.75;101218.46;109212;1256;66144;-68
2023/01/09 07:55:56;;;;;;;26.10;12.80;;;;;;;-4.62;68.79;101217.60;109194;1256;58195;-70
2023/01/09 07:58:23;;;;;;;23.60;10.90;;;;;;;-4.61;68.80;101216.39;109230;1255;58045;-70
2023/01/09 08:00:50;;;;;;;23.50;10.90;;;;;;;-4.59;68.86;101215.88;109112;1255;67290;-72
2023/01/09 08:03:17;;;;;;;25.00;11.00;;;;;;;-4.58;68.90;101218.27;109203;1256;59572;-71
2023/01/09 08:05:45;;;;;;;25.10;11.40;;;;;;;-4.58;68.95;101217.23;109208;1256;65054;-71
2023/01/09 08:08:13;;;;;;;31.20;12.60;;;;;;;-4.56;68.96;101219.80;109107;1262;58127;-71
2023/01/09 08:10:41;;;;;;;24.90;11.50;;;;;;;-4.55;69.03;101220.13;109199;1256;58021;-71
2023/01/09 08:13:08;;;;;;;26.90;12.10;;;;;;;-4.53;69.07;101220.31;109152;1256;67241;-71
2023/01/09 08:15:36;;;;;;;27.00;11.90;;;;;;;-4.54;69.11;101213.27;109165;1256;60363;-72
2023/01/09 08:18:03;;;;;;;26.30;11.60;;;;;;;-4.53;69.16;101212.06;109083;1256;64157;-71
2023/01/09 08:20:35;;;;;;;25.20;11.90;;;;;;;-4.52;69.24;101209.49;109140;1256;58087;-71
2023/01/09 08:23:07;;;;;;;30.30;12.70;;;;;;;-4.51;69.28;101208.45;109154;1256;58150;-70
2023/01/09 08:25:34;;;;;;;27.10;12.20;;;;;;;-4.48;69.34;101209.80;109211;1255;66041;-70
2023/01/09 08:28:01;;;;;;;26.50;12.00;;;;;;;-4.44;69.36;101208.93;109125;1261;59369;-70
2023/01/09 08:30:28;;;;;;;33.90;14.50;;;;;;;-4.42;69.45;101204.45;109029;1263;73562;-72
2023/01/09 08:32:56;;;;;;;30.80;12.60;;;;;;;-4.40;69.51;101196.19;109204;1256;58148;-70
2023/01/09 08:35:24;;;;;;;36.40;15.30;;;;;;;-4.39;69.56;101195.48;109220;1255;61348;-71
2023/01/09 08:37:51;;;;;;;29.20;13.30;;;;;;;-4.37;69.56;101193.76;109220;1256;67122;-70
2023/01/09 08:40:19;;;;;;;40.90;15.40;;;;;;;-4.36;69.52;101189.45;109226;1257;59192;-71
2023/01/09 08:48:19;;;;;;;27.50;10.50;;;;;;;-4.32;69.44;101191.66;109093;1257;58263;-72
2023/01/09 08:50:46;;;;;;;35.20;12.50;;;;;;;-4.32;69.31;101192.20;109040;1256;66077;-70
2023/01/09 08:53:14;;;;;;;29.90;12.50;;;;;;;-4.33;69.35;101189.80;109048;1256;60816;-71
2023/01/09 08:55:42;;;;;;;21.50;9.60;;;;;;;-4.32;69.23;101189.61;109038;1257;65958;-71
2023/01/09 08:58:11;;;;;;;20.80;9.00;;;;;;;-4.32;69.06;101186.86;109066;1257;58097;-72
2023/01/09 09:00:39;;;;;;;22.30;8.50;;;;;;;-4.31;68.92;101186.52;109095;1257;58487;-71
2023/01/09 09:03:08;;;;;;;23.00;10.20;;;;;;;-4.30;68.90;101184.61;109114;1256;67329;-70
2023/01/09 09:05:40;;;;;;;30.70;12.70;;;;;;;-4.29;68.86;101187.87;108998;1256;60552;-69
2023/01/09 09:08:07;;;;;;;22.10;8.90;;;;;;;-4.26;68.93;101185.10;109057;1257;66391;-69
2023/01/09 09:10:35;;;;;;;16.40;7.60;;;;;;;-4.26;68.89;101183.38;109025;1256;58154;-70
2023/01/09 09:13:03;;;;;;;16.10;7.00;;;;;;;-4.27;68.90;101182.17;109072;1256;58227;-71
2023/01/09 09:15:33;;;;;;;16.60;8.90;;;;;;;-4.27;68.82;101176.85;109036;1258;66003;-69
2023/01/09 09:18:02;;;;;;;22.30;9.60;;;;;;;-4.26;68.91;101176.50;109111;1256;59524;-69
2023/01/09 09:20:31;;;;;;;15.60;7.30;;;;;;;-4.24;68.86;101172.72;109067;1259;66035;-70
2023/01/09 09:22:58;;;;;;;17.70;8.00;;;;;;;-4.23;68.77;101174.43;109090;1256;58131;-70
2023/01/09 09:25:25;;;;;;;18.10;8.40;;;;;;;-4.21;68.61;101175.11;109087;1257;58209;-70
2023/01/09 09:27:55;;;;;;;28.00;11.00;;;;;;;-4.20;68.58;101169.42;109073;1257;66015;-74
2023/01/09 09:30:25;;;;;;;19.20;8.90;;;;;;;-4.16;68.65;101161.66;109113;1257;60440;-74
2023/01/09 09:32:54;;;;;;;19.90;8.70;;;;;;;-4.13;68.68;101149.60;109044;1256;64848;-73
2023/01/09 09:35:25;;;;;;;15.00;8.50;;;;;;;-4.11;68.64;101146.66;109066;1258;58196;-73
2023/01/09 09:37:56;;;;;;;18.30;10.50;;;;;;;-4.11;68.67;101138.92;109328;1257;58097;-76
2023/01/09 09:40:45;;;;;;;19.10;9.60;;;;;;;-4.12;68.76;101141.00;109186;1256;66230;-76
2023/01/09 09:46:45;;;;;;;16.40;8.30;;;;;;;-4.11;69.13;101140.64;108708;1264;65179;-79
2023/01/09 09:49:30;;;;;;;16.50;9.20;;;;;;;-4.10;69.30;101138.23;108569;1264;58171;-74
2023/01/09 09:52:13;;;;;;;16.80;9.20;;;;;;;-4.09;69.40;101143.03;108861;1257;58147;-71
2023/01/09 09:54:46;;;;;;;21.30;9.00;;;;;;;-4.07;69.47;101138.36;109029;1258;67253;-70
2023/01/09 09:57:21;;;;;;;21.30;9.30;;;;;;;-4.02;69.52;101138.34;108930;1257;58239;-70
2023/01/09 09:59:52;;;;;;;23.90;10.10;;;;;;;-3.97;69.45;101139.67;108942;1257;64044;-71
2023/01/09 10:02:31;;;;;;;26.10;9.70;;;;;;;-3.93;69.36;101137.25;108899;1257;58173;-70
2023/01/09 10:05:08;;;;;;;19.60;9.10;;;;;;;-3.88;69.25;101133.57;108948;1261;58236;-72
2023/01/09 10:07:43;;;;;;;17.00;8.40;;;;;;;-3.84;69.10;101130.98;108877;1257;67371;-71
2023/01/09 10:10:24;;;;;;;;;;;;;;;-3.81;69.05;101122.70;108989;1257;58225;-71
2023/01/09 10:12:55;;;;;;;14.30;7.00;;;;;;;-3.80;68.94;101120.77;109051;1257;66123;-71
2023/01/09 10:15:29;;;;;;;13.90;6.30;;;;;;;-3.78;68.90;101118.17;108924;1260;58200;-71
2023/01/09 10:18:23;;;;;;;13.40;6.60;;;;;;;-3.76;68.83;101118.52;108919;1260;58096;-70
2023/01/09 10:21:29;;;;;;;14.00;7.30;;;;;;;-3.74;68.78;101118.33;108927;1261;67332;-69
2023/01/09 10:24:13;;;;;;;11.30;6.00;;;;;;;-3.71;68.76;101122.09;108982;1257;60417;-69
2023/01/09 10:26:47;;;;;;;14.50;6.40;;;;;;;-3.70;68.69;101114.84;108929;1257;65869;-69
2023/01/09 10:29:35;;;;;;;15.20;7.20;;;;;;;-3.69;68.67;101114.48;108971;1260;58122;-69
2023/01/09 10:33:01;;;;;;;17.90;8.10;;;;;;;-3.68;68.72;101114.82;108995;1257;58194;-69
2023/01/09 10:35:55;;;;;;;18.90;8.40;;;;;;;-3.65;68.76;101114.29;109049;1257;66983;-70
2023/01/09 10:38:28;;;;;;;21.10;9.40;;;;;;;-3.62;68.83;101114.42;108916;1257;60607;-71
2023/01/09 10:41:16;;;;;;;22.80;10.70;;;;;;;-3.59;68.88;101111.12;108947;1257;65152;-70
2023/01/09 10:43:52;;;;;;;28.80;10.80;;;;;;;-3.56;68.93;101108.52;108912;1260;58221;-69
2023/01/09 10:46:25;;;;;;;34.60;12.50;;;;;;;-3.53;68.95;101105.73;108806;1257;350914;-70
2023/01/09 10:56:26;;;;;;;34.70;13.80;;;;;;;-3.44;69.17;101095.15;102352;1295;600077;-70
2023/01/09 10:58:54;;;;;;;39.80;14.20;;;;;;;-3.44;69.21;101100.48;104462;1272;59368;-70
2023/01/09 11:01:31;;;;;;;41.60;15.30;;;;;;;-3.42;69.23;101100.45;104700;1266;59238;-71
2023/01/09 11:04:00;;;;;;;37.90;12.70;;;;;;;-3.41;69.16;101095.96;104479;1272;65995;-71
2023/01/09 11:06:42;;;;;;;30.80;13.30;;;;;;;-3.39;69.20;101093.70;104658;1267;60596;-69
2023/01/09 11:09:09;;;;;;;25.80;12.10;;;;;;;-3.39;69.15;101090.25;104361;1273;203073;-70
2023/01/09 11:11:40;;;;;;;23.20;10.20;;;;;;;-3.38;69.04;101090.59;104744;1267;59429;-70
2023/01/09 11:14:26;;;;;;;23.70;11.20;;;;;;;-3.37;69.00;101090.07;104863;1264;59160;-70
2023/01/09 11:16:55;;;;;;;21.30;9.30;;;;;;;-3.34;69.12;101086.61;105029;1266;65929;-70
2023/01/09 11:19:23;;;;;;;14.80;7.20;;;;;;;-3.32;69.20;101088.98;105098;1266;60664;-71
2023/01/09 11:22:14;;;;;;;17.00;8.40;;;;;;;-3.30;69.30;101088.60;105053;1261;66629;-70
2023/01/09 11:24:42;;;;;;;25.10;9.70;;;;;;;-3.28;69.32;101080.52;105002;1266;59781;-70
2023/01/09 11:27:12;;;;;;;24.40;10.30;;;;;;;-3.26;69.47;101078.59;105441;1255;59740;-69
2023/01/09 11:29:42;;;;;;;30.70;12.60;;;;;;;-3.24;69.48;101081.31;105466;1254;66042;-69
2023/01/09 11:32:23;;;;;;;29.90;12.20;;;;;;;-3.22;69.45;101085.92;105425;1254;61186;-69
2023/01/09 11:34:49;;;;;;;32.00;11.50;;;;;;;-3.19;69.48;101084.70;105522;1254;65520;-70
2023/01/09 11:37:25;;;;;;;36.30;13.10;;;;;;;-3.17;69.50;101083.64;105489;1254;59826;-72
2023/01/09 11:39:51;;;;;;;32.10;12.80;;;;;;;-3.15;69.49;101082.41;105606;1258;60419;-69
2023/01/09 11:45:18;;;;;;;37.10;12.50;;;;;;;-3.12;69.43;101072.38;105435;1256;60919;-69
2023/01/09 11:47:45;;;;;;;42.70;13.90;;;;;;;-3.10;69.45;101069.94;105523;1254;66507;-70